createdAt,value
2022-08-29T00:02:09.384Z,61.15
2022-08-29T00:04:58.758Z,61.75
2022-08-29T00:07:46.810Z,61.27
2022-08-29T00:10:37.663Z,61.45
2022-08-29T00:13:25.461Z,62.02
2022-08-29T00:16:13.481Z,61.68
2022-08-29T00:19:01.279Z,61.76
2022-08-29T00:21:50.061Z,61.87
2022-08-29T00:24:37.890Z,61.60
2022-08-29T00:27:25.796Z,62.09
2022-08-29T00:30:15.254Z,62.26
2022-08-29T00:33:03.613Z,62.39
2022-08-29T00:35:51.441Z,62.42
2022-08-29T00:38:39.424Z,62.64
2022-08-29T00:41:29.793Z,62.48
2022-08-29T00:44:17.817Z,62.38
2022-08-29T00:47:12.488Z,63.58
2022-08-29T00:50:02.612Z,63.18
2022-08-29T00:52:50.743Z,63.65
2022-08-29T00:55:40.450Z,63.55
2022-08-29T00:58:36.456Z,63.63
2022-08-29T01:01:24.348Z,63.96
2022-08-29T01:04:15.706Z,64.29
2022-08-29T01:07:04.295Z,64.40
2022-08-29T01:09:53.012Z,64.72
2022-08-29T01:12:41.323Z,64.88
2022-08-29T01:15:31.664Z,65.32
2022-08-29T01:18:20.399Z,65.23
2022-08-29T01:21:22.457Z,65.32
2022-08-29T01:24:15.621Z,65.66
2022-08-29T01:27:03.773Z,65.91
2022-08-29T01:29:51.610Z,65.82
2022-08-29T01:32:39.650Z,65.65
2022-08-29T01:35:28.349Z,66.23
2022-08-29T01:38:27.581Z,66.12
2022-08-29T01:41:18.182Z,66.44
2022-08-29T01:44:13.508Z,66.93
2022-08-29T01:47:03.380Z,66.60
2022-08-29T01:49:52.635Z,67.37
2022-08-29T01:52:43.155Z,67.58
2022-08-29T01:55:30.974Z,67.66
2022-08-29T01:58:18.883Z,68.17
2022-08-29T02:01:07.850Z,68.40
2022-08-29T02:03:56.030Z,67.54
2022-08-29T02:06:44.957Z,67.47
2022-08-29T02:09:32.761Z,67.88
2022-08-29T02:12:21.621Z,67.93
2022-08-29T02:15:10.587Z,67.92
2022-08-29T02:17:58.356Z,67.96
2022-08-29T02:20:46.489Z,68.59
2022-08-29T02:23:37.615Z,68.60
2022-08-29T02:26:25.681Z,69.00
2022-08-29T02:29:13.468Z,69.03
2022-08-29T02:32:01.977Z,68.97
2022-08-29T02:34:49.830Z,69.25
2022-08-29T02:37:37.716Z,70.11
2022-08-29T02:40:31.461Z,69.61
2022-08-29T02:43:21.450Z,69.62
2022-08-29T02:46:15.957Z,69.64
2022-08-29T02:49:04.360Z,70.48
2022-08-29T02:51:52.179Z,70.51
2022-08-29T02:54:40.043Z,70.51
2022-08-29T02:57:27.885Z,71.02
2022-08-29T03:00:21.904Z,71.45
2022-08-29T03:03:10.136Z,71.54
2022-08-29T03:05:58.556Z,72.25
2022-08-29T03:08:46.559Z,72.48
2022-08-29T03:11:34.880Z,73.00
2022-08-29T03:14:24.229Z,73.27
2022-08-29T03:17:12.116Z,73.65
2022-08-29T03:20:00.041Z,73.96
2022-08-29T03:22:49.133Z,74.55
2022-08-29T03:25:37.357Z,75.22
2022-08-29T03:28:25.715Z,76.78
2022-08-29T03:31:14.168Z,76.84
2022-08-29T03:34:01.997Z,77.27
2022-08-29T03:36:49.843Z,76.97
2022-08-29T03:39:38.020Z,77.41
2022-08-29T03:42:25.972Z,77.54
2022-08-29T03:45:17.548Z,77.65
2022-08-29T03:48:05.812Z,77.72
2022-08-29T03:50:56.445Z,77.92
2022-08-29T03:53:45.692Z,78.33
2022-08-29T03:56:35.258Z,78.33
2022-08-29T03:59:24.132Z,78.99
2022-08-29T04:02:12.082Z,78.46
2022-08-29T04:05:08.942Z,78.97
2022-08-29T04:07:59.591Z,79.52
2022-08-29T04:10:47.360Z,79.07
2022-08-29T04:13:35.284Z,79.65
2022-08-29T04:16:30.402Z,79.63
2022-08-29T04:19:20.951Z,80.03
2022-08-29T04:22:08.804Z,79.75
2022-08-29T04:24:56.653Z,79.70
2022-08-29T04:27:45.084Z,79.91
2022-08-29T04:30:33.312Z,79.78
2022-08-29T04:33:25.691Z,80.12
2022-08-29T04:36:15.054Z,80.32
2022-08-29T04:39:03.989Z,80.60
2022-08-29T04:41:51.823Z,80.83
2022-08-29T04:44:40.094Z,81.22
2022-08-29T04:47:27.954Z,81.13
2022-08-29T04:50:20.255Z,81.05
2022-08-29T04:53:08.119Z,81.01
2022-08-29T04:56:03.341Z,80.68
2022-08-29T04:58:52.101Z,80.25
2022-08-29T05:01:43.117Z,80.61
2022-08-29T05:04:30.995Z,80.74
2022-08-29T05:07:25.465Z,80.37
2022-08-29T05:10:17.595Z,80.20
2022-08-29T05:13:05.412Z,79.92
2022-08-29T05:15:53.284Z,78.95
2022-08-29T05:18:41.678Z,78.45
2022-08-29T05:21:35.996Z,78.17
2022-08-29T05:24:24.241Z,79.07
2022-08-29T05:27:19.621Z,79.15
2022-08-29T05:30:08.633Z,78.07
2022-08-29T05:32:56.521Z,78.90
2022-08-29T05:35:45.106Z,79.32
2022-08-29T05:38:33.249Z,78.21
2022-08-29T05:41:21.126Z,77.22
2022-08-29T05:44:08.964Z,76.48
2022-08-29T05:46:56.793Z,75.01
2022-08-29T05:49:46.578Z,73.76
2022-08-29T05:52:34.383Z,73.20
2022-08-29T05:55:22.632Z,73.84
2022-08-29T05:58:12.343Z,72.32
2022-08-29T06:01:00.195Z,72.89
2022-08-29T06:03:50.386Z,71.23
2022-08-29T06:06:41.201Z,70.86
2022-08-29T06:09:29.070Z,69.83
2022-08-29T06:12:16.998Z,69.09
2022-08-29T06:15:05.991Z,67.42
2022-08-29T06:17:54.767Z,67.93
2022-08-29T06:20:42.630Z,67.15
2022-08-29T06:23:30.450Z,66.04
2022-08-29T06:26:19.737Z,65.57
2022-08-29T06:29:09.917Z,64.45
2022-08-29T06:31:59.291Z,64.56
2022-08-29T06:34:47.392Z,64.17
2022-08-29T06:37:35.197Z,64.36
2022-08-29T06:40:23.222Z,64.02
2022-08-29T06:43:11.067Z,64.84
2022-08-29T06:45:59.452Z,64.09
2022-08-29T06:48:47.370Z,64.35
2022-08-29T06:51:41.873Z,63.29
2022-08-29T06:54:29.844Z,64.04
2022-08-29T06:57:17.692Z,63.88
2022-08-29T07:00:16.834Z,64.06
2022-08-29T07:03:11.084Z,62.52
2022-08-29T07:05:59.095Z,61.07
2022-08-29T07:08:55.662Z,61.25
2022-08-29T07:11:44.410Z,60.20
2022-08-29T07:14:32.439Z,60.25
2022-08-29T07:17:25.948Z,59.88
2022-08-29T07:20:15.353Z,58.17
2022-08-29T07:23:03.268Z,56.79
2022-08-29T07:25:51.113Z,56.28
2022-08-29T07:28:40.626Z,56.30
2022-08-29T07:31:33.531Z,55.80
2022-08-29T07:34:21.429Z,55.55
2022-08-29T07:37:10.841Z,55.68
2022-08-29T07:39:58.731Z,56.00
2022-08-29T07:42:46.710Z,55.03
2022-08-29T07:45:34.640Z,55.00
2022-08-29T07:48:24.020Z,54.83
2022-08-29T07:51:16.441Z,52.87
2022-08-29T07:54:06.489Z,52.70
2022-08-29T07:56:54.408Z,51.91
2022-08-29T07:59:42.362Z,52.17
2022-08-29T08:02:30.557Z,51.80
2022-08-29T08:05:20.090Z,50.35
2022-08-29T08:08:14.885Z,50.27
2022-08-29T08:11:07.977Z,50.31
2022-08-29T08:13:57.492Z,49.92
2022-08-29T08:16:45.900Z,48.86
2022-08-29T08:19:33.979Z,48.38
2022-08-29T08:22:22.006Z,48.67
2022-08-29T08:25:10.160Z,47.06
2022-08-29T08:27:59.471Z,46.59
2022-08-29T08:30:48.877Z,46.69
2022-08-29T08:33:39.055Z,45.99
2022-08-29T08:36:32.260Z,45.96
2022-08-29T08:39:22.717Z,45.54
2022-08-29T08:42:24.899Z,45.77
2022-08-29T08:45:27.002Z,45.78
2022-08-29T08:48:34.458Z,46.38
2022-08-29T08:51:29.416Z,45.44
2022-08-29T08:54:34.310Z,44.69
2022-08-29T08:57:22.953Z,44.56
2022-08-29T09:00:13.061Z,44.14
2022-08-29T09:03:18.373Z,44.25
2022-08-29T09:06:55.563Z,42.92
2022-08-29T09:10:16.289Z,42.47
2022-08-29T09:13:36.738Z,41.17
2022-08-29T09:16:34.969Z,39.64
2022-08-29T09:19:27.770Z,37.87
2022-08-29T09:22:32.811Z,36.88
2022-08-29T09:25:27.892Z,35.45
2022-08-29T09:28:18.187Z,35.19
2022-08-29T09:31:32.907Z,33.95
2022-08-29T09:35:06.918Z,32.15
2022-08-29T09:38:01.140Z,31.34
2022-08-29T09:41:01.247Z,31.35
2022-08-29T09:43:52.708Z,30.14
2022-08-29T09:46:42.845Z,29.21
2022-08-29T09:49:32.450Z,29.96
2022-08-29T09:52:26.620Z,29.01
2022-08-29T09:55:23.973Z,27.36
2022-08-29T09:58:34.246Z,27.75
2022-08-29T10:01:28.803Z,28.08
2022-08-29T10:04:40.562Z,28.25
2022-08-29T10:07:45.917Z,27.62
2022-08-29T10:10:54.907Z,27.17
2022-08-29T10:13:58.776Z,26.71
2022-08-29T10:17:42.174Z,27.17
2022-08-29T10:21:10.398Z,27.43
2022-08-29T10:24:57.937Z,26.60
2022-08-29T10:28:06.325Z,26.29
2022-08-29T10:31:33.920Z,27.24
2022-08-29T10:35:06.540Z,29.97
2022-08-29T10:38:28.954Z,31.69
2022-08-29T10:41:57.097Z,33.23
2022-08-29T10:45:14.940Z,33.13
2022-08-29T10:48:29.838Z,35.51
2022-08-29T10:51:42.025Z,37.83
2022-08-29T10:55:06.714Z,36.75
2022-08-29T10:58:21.881Z,37.76
2022-08-29T11:01:38.779Z,38.74
2022-08-29T11:04:39.517Z,38.17
2022-08-29T11:07:42.649Z,38.49
2022-08-29T11:10:40.598Z,37.62
2022-08-29T11:13:48.129Z,38.10
2022-08-29T11:16:50.599Z,38.51
2022-08-29T11:19:50.224Z,38.54
2022-08-29T11:23:00.409Z,39.08
2022-08-29T11:25:51.237Z,38.58
2022-08-29T11:29:37.515Z,39.20
2022-08-29T11:32:56.255Z,38.81
2022-08-29T11:36:43.363Z,38.37
2022-08-29T11:40:10.193Z,38.30
2022-08-29T11:43:02.556Z,37.75
2022-08-29T11:46:07.537Z,38.26
2022-08-29T11:49:27.858Z,38.54
2022-08-29T11:52:25.636Z,39.07
2022-08-29T11:55:31.814Z,38.24
2022-08-29T11:58:22.767Z,38.81
2022-08-29T12:01:34.346Z,37.62
2022-08-29T12:05:03.524Z,38.02
2022-08-29T12:08:38.430Z,37.99
2022-08-29T12:12:14.152Z,38.10
2022-08-29T12:15:32.416Z,38.11
2022-08-29T12:18:20.359Z,37.82
2022-08-29T12:21:37.718Z,38.20
2022-08-29T12:24:42.993Z,37.55
2022-08-29T12:28:20.832Z,38.14
2022-08-29T12:32:08.713Z,38.01
2022-08-29T12:35:47.401Z,37.90
2022-08-29T12:39:09.215Z,37.46
2022-08-29T12:42:39.988Z,38.23
2022-08-29T12:45:32.732Z,37.09
2022-08-29T12:48:32.342Z,36.68
2022-08-29T12:51:42.617Z,37.25
2022-08-29T12:54:42.001Z,37.30
2022-08-29T12:57:38.948Z,37.11
2022-08-29T13:00:33.909Z,36.59
2022-08-29T13:03:25.229Z,36.52
2022-08-29T13:06:15.596Z,36.73
2022-08-29T13:09:07.627Z,36.62
2022-08-29T13:12:21.888Z,35.92
2022-08-29T13:15:32.099Z,36.13
2022-08-29T13:18:23.665Z,36.65
2022-08-29T13:21:27.185Z,36.60
2022-08-29T13:24:21.664Z,36.48
2022-08-29T13:27:14.506Z,35.62
2022-08-29T13:30:04.679Z,35.43
2022-08-29T13:32:55.860Z,35.74
2022-08-29T13:35:45.490Z,35.62
2022-08-29T13:38:37.959Z,35.85
2022-08-29T13:41:31.076Z,35.30
2022-08-29T13:44:30.999Z,35.41
2022-08-29T13:47:33.584Z,35.30
2022-08-29T13:50:23.962Z,35.39
2022-08-29T13:53:15.808Z,35.74
2022-08-29T13:56:21.506Z,35.18
2022-08-29T13:59:12.918Z,35.46
2022-08-29T14:02:09.488Z,35.39
2022-08-29T14:04:59.418Z,35.23
2022-08-29T14:07:48.999Z,35.25
2022-08-29T14:10:41.563Z,35.43
2022-08-29T14:13:33.356Z,35.62
2022-08-29T14:16:25.004Z,35.26
2022-08-29T14:19:16.832Z,35.33
2022-08-29T14:22:07.480Z,35.34
2022-08-29T14:24:57.903Z,34.74
2022-08-29T14:27:48.178Z,34.55
2022-08-29T14:30:41.148Z,34.77
2022-08-29T14:33:43.067Z,34.46
2022-08-29T14:36:38.578Z,34.23
2022-08-29T14:39:35.939Z,34.38
2022-08-29T14:42:25.799Z,34.14
2022-08-29T14:45:15.964Z,34.29
2022-08-29T14:48:06.852Z,34.42
2022-08-29T14:50:57.638Z,34.28
2022-08-29T14:53:54.225Z,33.56
2022-08-29T14:56:48.750Z,33.50
2022-08-29T14:59:42.797Z,33.53
2022-08-29T15:02:32.453Z,33.58
2022-08-29T15:05:22.485Z,33.57
2022-08-29T15:08:15.805Z,33.87
2022-08-29T15:11:13.490Z,33.23
2022-08-29T15:14:04.385Z,33.06
2022-08-29T15:16:54.547Z,32.92
2022-08-29T15:20:31.539Z,32.92
2022-08-29T15:22:56.849Z,33.17
2022-08-29T15:25:51.868Z,32.70
2022-08-29T15:28:45.773Z,33.06
2022-08-29T15:31:35.305Z,33.26
2022-08-29T15:34:31.137Z,32.75
2022-08-29T15:37:21.992Z,33.17
2022-08-29T15:40:13.334Z,33.16
2022-08-29T15:43:03.492Z,33.06
2022-08-29T15:45:53.491Z,33.32
2022-08-29T15:48:46.551Z,33.43
2022-08-29T15:51:36.461Z,32.83
2022-08-29T15:54:26.639Z,33.94
2022-08-29T15:57:15.095Z,33.73
2022-08-29T16:00:10.258Z,33.41
2022-08-29T16:03:02.894Z,33.68
2022-08-29T16:05:53.677Z,33.52
2022-08-29T16:08:46.836Z,33.75
2022-08-29T16:11:37.131Z,33.70
2022-08-29T16:14:58.176Z,34.21
2022-08-29T16:17:41.376Z,33.76
2022-08-29T16:20:32.796Z,33.79
2022-08-29T16:23:24.241Z,33.98
2022-08-29T16:26:13.738Z,34.00
2022-08-29T16:29:06.449Z,33.91
2022-08-29T16:32:01.218Z,34.44
2022-08-29T16:34:52.438Z,33.84
2022-08-29T16:37:45.146Z,34.23
2022-08-29T16:40:36.900Z,33.32
2022-08-29T16:43:27.733Z,33.46
2022-08-29T16:46:21.561Z,33.69
2022-08-29T16:49:11.186Z,34.08
2022-08-29T16:52:03.686Z,33.69
2022-08-29T16:54:56.987Z,33.79
2022-08-29T16:58:06.129Z,33.92
2022-08-29T17:01:00.287Z,33.96
2022-08-29T17:03:48.554Z,33.78
2022-08-29T17:06:39.716Z,34.23
2022-08-29T17:09:27.798Z,34.08
2022-08-29T17:12:16.301Z,33.80
2022-08-29T17:15:04.853Z,34.03
2022-08-29T17:17:55.283Z,34.10
2022-08-29T17:20:46.275Z,33.88
2022-08-29T17:23:38.336Z,34.04
2022-08-29T17:26:28.991Z,33.98
2022-08-29T17:29:17.590Z,33.95
2022-08-29T17:32:09.892Z,34.59
2022-08-29T17:35:01.914Z,34.25
2022-08-29T17:37:52.081Z,34.66
2022-08-29T17:40:43.830Z,34.52
2022-08-29T17:43:36.422Z,34.94
2022-08-29T17:46:29.441Z,34.77
2022-08-29T17:49:19.992Z,34.94
2022-08-29T17:52:11.169Z,34.94
2022-08-29T17:55:06.620Z,34.88
2022-08-29T17:57:59.197Z,34.87
2022-08-29T18:00:49.725Z,35.04
2022-08-29T18:03:40.651Z,34.99
2022-08-29T18:06:32.513Z,35.51
2022-08-29T18:09:25.839Z,35.40
2022-08-29T18:12:17.891Z,35.33
2022-08-29T18:15:09.273Z,35.25
2022-08-29T18:17:59.933Z,35.62
2022-08-29T18:20:50.797Z,35.19
2022-08-29T18:23:41.719Z,35.64
2022-08-29T18:26:32.026Z,36.07
2022-08-29T18:29:21.917Z,36.24
2022-08-29T18:32:11.708Z,36.49
2022-08-29T18:35:04.320Z,36.88
2022-08-29T18:37:54.970Z,36.99
2022-08-29T18:40:46.754Z,37.63
2022-08-29T18:43:40.764Z,37.92
2022-08-29T18:46:32.470Z,38.15
2022-08-29T18:49:40.842Z,38.22
2022-08-29T18:52:29.978Z,38.68
2022-08-29T18:55:19.906Z,38.89
2022-08-29T18:58:10.958Z,39.03
2022-08-29T19:01:11.304Z,39.33
2022-08-29T19:04:02.313Z,39.98
2022-08-29T19:06:50.380Z,40.37
2022-08-29T19:09:38.408Z,40.51
2022-08-29T19:12:26.422Z,40.59
2022-08-29T19:15:15.440Z,40.98
2022-08-29T19:18:06.877Z,41.04
2022-08-29T19:21:06.639Z,41.32
2022-08-29T19:23:55.877Z,41.26
2022-08-29T19:26:43.940Z,41.50
2022-08-29T19:29:31.978Z,41.76
2022-08-29T19:32:20.015Z,41.74
2022-08-29T19:35:10.976Z,41.34
2022-08-29T19:37:59.389Z,41.90
2022-08-29T19:40:48.643Z,41.30
2022-08-29T19:43:38.635Z,41.76
2022-08-29T19:46:27.519Z,42.03
2022-08-29T19:49:15.472Z,41.81
2022-08-29T19:52:04.167Z,41.88
2022-08-29T19:54:53.889Z,41.87
2022-08-29T19:57:43.840Z,42.16
2022-08-29T20:00:32.804Z,42.39
2022-08-29T20:03:20.879Z,42.46
2022-08-29T20:06:09.806Z,42.52
2022-08-29T20:08:58.455Z,42.25
2022-08-29T20:11:47.539Z,42.71
2022-08-29T20:14:35.533Z,42.54
2022-08-29T20:17:23.410Z,42.65
2022-08-29T20:20:18.676Z,42.84
2022-08-29T20:23:07.815Z,42.88
2022-08-29T20:25:55.805Z,42.85
2022-08-29T20:28:43.787Z,43.20
2022-08-29T20:31:32.440Z,42.89
2022-08-29T20:34:20.589Z,43.63
2022-08-29T20:37:08.758Z,43.48
2022-08-29T20:39:57.505Z,43.60
2022-08-29T20:42:45.527Z,43.54
2022-08-29T20:45:33.854Z,43.99
2022-08-29T20:48:22.275Z,43.85
2022-08-29T20:51:11.740Z,43.95
2022-08-29T20:53:59.661Z,43.81
2022-08-29T20:56:48.536Z,43.79
2022-08-29T20:59:39.351Z,43.75
2022-08-29T21:02:46.088Z,43.67
2022-08-29T21:05:43.147Z,43.97
2022-08-29T21:08:32.081Z,43.97
2022-08-29T21:11:20.964Z,44.02
2022-08-29T21:14:10.240Z,44.07
2022-08-29T21:16:58.494Z,44.11
2022-08-29T21:19:47.260Z,44.16
2022-08-29T21:22:35.318Z,43.80
2022-08-29T21:25:23.229Z,43.97
2022-08-29T21:28:13.987Z,43.87
2022-08-29T21:31:10.400Z,44.39
2022-08-29T21:34:00.359Z,44.50
2022-08-29T21:36:50.577Z,44.57
2022-08-29T21:39:38.460Z,44.98
2022-08-29T21:42:26.344Z,44.79
2022-08-29T21:45:14.280Z,44.94
2022-08-29T21:48:02.182Z,44.93
2022-08-29T21:50:55.738Z,45.11
2022-08-29T21:53:43.613Z,44.96
2022-08-29T21:56:33.134Z,45.24
2022-08-29T21:59:21.816Z,45.30
2022-08-29T22:02:09.878Z,45.49
2022-08-29T22:04:57.781Z,45.39
2022-08-29T22:07:46.009Z,45.76
2022-08-29T22:10:36.968Z,45.93
2022-08-29T22:13:24.810Z,45.45
2022-08-29T22:16:30.802Z,45.74
2022-08-29T22:19:19.077Z,45.76
2022-08-29T22:22:06.965Z,46.09
2022-08-29T22:24:54.822Z,46.09
2022-08-29T22:27:42.706Z,46.14
2022-08-29T22:30:32.415Z,46.19
2022-08-29T22:33:20.915Z,45.90
2022-08-29T22:36:13.109Z,45.96
2022-08-29T22:39:01.037Z,46.25
2022-08-29T22:41:48.911Z,46.33
2022-08-29T22:47:46.710Z,46.73
2022-08-29T22:50:36.153Z,46.77
2022-08-29T22:53:24.174Z,46.95
2022-08-29T22:56:12.024Z,47.09
2022-08-29T22:59:00.856Z,47.29
2022-08-29T23:01:49.188Z,47.69
2022-08-29T23:04:38.479Z,47.61
2022-08-29T23:07:26.642Z,47.85
2022-08-29T23:10:15.486Z,48.59
2022-08-29T23:13:03.508Z,48.87
2022-08-29T23:15:51.449Z,49.16
2022-08-29T23:18:39.572Z,49.38
2022-08-29T23:21:29.262Z,49.78
2022-08-29T23:24:18.532Z,50.30
2022-08-29T23:27:07.065Z,50.35
2022-08-29T23:29:55.036Z,50.81
2022-08-29T23:32:42.899Z,51.20
2022-08-29T23:35:30.729Z,51.83
2022-08-29T23:38:19.003Z,51.99
2022-08-29T23:41:07.193Z,52.56
2022-08-29T23:43:55.139Z,52.71
2022-08-29T23:46:43.085Z,53.36
2022-08-29T23:49:31.377Z,53.17
2022-08-29T23:52:19.377Z,53.55
2022-08-29T23:55:08.387Z,53.72
2022-08-29T23:57:56.240Z,54.59
